• Join FlightAware (Why Join?)
  • Login
  • US Flag 
02:11PM EDT


 

Airport Tracker/Info


-or-


 

Live Flight TrackerFlight Track Log ✈ N53PB ✈ 26-Sep-2013 ✈ KBTL - KBTL

Flight Track Log - Related Links

Times and Time Zones

All times are in EDT time to prevent confusion due to time zone crossing. See the N53PB flight status page for this flight to view local times or setup timezone preferences in your user account.

Time Position Orientation Groundspeed Altitude Reporting Facility
EDT Latitude Longitude Course Direction KTS MPH feet Rate Location/Type
09:56PM 42.2686 -85.2517 95° East 99 114 2,500  Level Cleveland Center
09:57PM 42.2633 -85.2183 102° East 92 106 3,100 540 Climbing Cleveland Center
09:58PM 42.2575 -85.1769 101° East 93 107 3,700 480 Climbing Cleveland Center
09:59PM 42.2522 -85.1433 102° East 94 108 4,200 480 Climbing Cleveland Center
10:00PM 42.3065 -85.2501 85° East  Level Estimated
10:00PM 42.2464 -85.1069 102° East 98 113 4,700  Level Cleveland Center
10:01PM 42.3065 -85.2501 95° East  Level Estimated
10:01PM 42.2411 -85.0669 100° East 107 123 5,000  Level Cleveland Center
10:02PM 42.2414 -85.0208 90° East 121 139 5,000 -60 Level Cleveland Center
10:03PM 42.2417 -84.9711 90° East 131 151 4,900  Descending Cleveland Center
10:04PM 42.2422 -84.9217 89° East 131 151 5,000  Climbing Cleveland Center
10:05PM 42.2408 -84.8714 92° East 134 154 5,000  Level Cleveland Center
10:06PM 42.2397 -84.8103 91° East 136 157 5,000  Level Cleveland Center
10:07PM 42.2408 -84.7619 88° East 131 151 5,000 -60 Level Cleveland Center
10:08PM 42.2428 -84.7125 87° East 131 151 4,900  Descending Cleveland Center
10:09PM 42.2458 -84.6636 85° East 131 151 5,000  Climbing Cleveland Center
10:10PM 42.2475 -84.6197 87° East 128 147 5,000  Level Cleveland Center
10:11PM 42.2528 -84.5614 83° East 130 150 5,000  Level Cleveland Center
10:12PM 42.2542 -84.5117 88° East 131 151 5,000  Level Cleveland Center
10:13PM 42.2583 -84.4631 83° East 132 152 5,000  Level Cleveland Center
10:14PM 42.2911 -84.4392 28° Northeast 135 155 5,100  Climbing Cleveland Center
10:15PM 42.3247 -84.4167 26° Northeast 133 153 5,000 -60 Descending Cleveland Center
10:16PM 42.3567 -84.3900 32° Northeast 135 155 5,000  Level Cleveland Center
10:17PM 42.3883 -84.3647 31° Northeast 133 153 5,000  Level Cleveland Center
10:18PM 42.4206 -84.3422 27° Northeast 132 152 5,000  Level Cleveland Center
10:19PM 42.4592 -84.3128 29° Northeast 133 153 5,000  Level Cleveland Center
10:20PM 42.4919 -84.2875 30° Northeast 133 153 5,000  Level Cleveland Center
10:21PM 42.5242 -84.2639 28° Northeast 133 153 5,000  Level Cleveland Center
10:22PM 42.5597 -84.2389 27° Northeast 134 154 5,000  Level Cleveland Center
10:23PM 42.5917 -84.2169 27° Northeast 131 151 5,000  Level Cleveland Center
10:24PM 42.6258 -84.1919 28° Northeast 130 150 5,000  Level Cleveland Center
10:25PM 42.6564 -84.1656 32° Northeast 131 151 5,000  Level Cleveland Center
10:27PM 42.6872 -84.1408 31° Northeast 130 150 5,000  Level Cleveland Center
10:28PM 42.7192 -84.1108 35° Northeast 130 150 5,000  Level Cleveland Center
10:29PM 42.7428 -84.0753 48° Northeast 129 148 5,000  Level Cleveland Center
10:30PM 42.7700 -84.0392 44° Northeast 129 148 5,000 -300 Level Cleveland Center
10:31PM 42.8061 -84.0308 10° North 138 159 4,500 -540 Descending Cleveland Center
10:32PM 42.8444 -84.0286 North 139 160 3,900 -600 Descending Cleveland Center
10:33PM 42.8867 -84.0294 359° North 140 161 3,300 -480 Descending Cleveland Center
10:34PM 42.9219 -84.0128 19° North 135 155 3,000 -180 Descending Cleveland Center
10:35PM 42.9550 -83.9931 24° Northeast 132 152 3,000 -240 Level Cleveland Center
10:36PM 42.9650 -83.9417 75° East 137 158 2,600 -240 Descending Cleveland Center
10:37PM 42.9658 -83.8975 89° East 123 142 2,600 -300 Level Cleveland Center
10:38PM 42.9669 -83.8569 88° East 105 121 2,000 -540 Descending Cleveland Center
10:39PM 42.9675 -83.8225 89° East 95 109 1,600 -360 Descending Cleveland Center
10:40PM 42.9681 -83.7961 88° East 76 87 1,300 -360 Descending Cleveland Center
10:41PM 42.9683 -83.7675 89° East 70 81 900 -300 Descending Cleveland Center
10:42PM 42.9689 -83.7456 88° East 59 68 800 300 Descending Cleveland Center
10:43PM 42.9689 -83.7189 90° East 67 77 1,600 540 Climbing Cleveland Center
10:44PM 42.9586 -83.6925 118° Southeast 81 93 2,000 360 Climbing Cleveland Center
10:45PM 42.9367 -83.7244 227° Southwest 129 148 2,400 420 Climbing Cleveland Center
10:46PM 42.9256 -83.7692 251° West 125 144 2,900 480 Climbing Cleveland Center
10:47PM 42.9150 -83.8131 252° West 124 143 3,400 480 Climbing Cleveland Center
10:48PM 42.9097 -83.8614 262° West 119 137 3,900 240 Climbing Cleveland Center
10:49PM 42.9017 -83.9072 257° West 123 142 4,000  Climbing Cleveland Center
10:50PM 42.8931 -83.9567 257° West 133 153 4,000  Level Cleveland Center
10:51PM 42.8822 -84.0108 255° West 137 158 4,000  Level Cleveland Center
10:52PM 42.8700 -84.0608 252° West 141 162 4,000  Level Cleveland Center
10:53PM 42.8583 -84.1097 252° West 139 160 4,000  Level Cleveland Center
10:54PM 42.8453 -84.1633 252° West 140 161 4,000  Level Cleveland Center
10:55PM 42.8472 -84.2153 273° West 144 166 4,000 -60 Level Cleveland Center
10:56PM 42.8547 -84.2669 281° West 142 163 3,900  Descending Cleveland Center
10:57PM 42.8608 -84.3231 278° West 139 160 4,000  Climbing Cleveland Center
10:58PM 42.8678 -84.3756 280° West 142 163 4,000  Level Cleveland Center
10:59PM 42.8728 -84.4281 277° West 142 163 4,000  Level Cleveland Center
11:00PM 42.8800 -84.4853 280° West 144 166 4,000  Level Cleveland Center
11:01PM 42.8889 -84.5369 283° West 144 166 4,000 -60 Level Cleveland Center
11:02PM 42.8967 -84.5897 281° West 140 161 3,900  Descending Chicago Center
11:03PM 42.9014 -84.6431 277° West 141 162 4,000 -240 Climbing Chicago Center
11:04PM 42.9094 -84.6958 282° West 141 162 3,500 -540 Descending Chicago Center
11:05PM 42.9147 -84.7506 278° West 145 167 3,000 -300 Descending Chicago Center
11:06PM 42.8822 -84.7856 218° Southwest 142 163 3,000  Level Chicago Center
11:07PM 42.8489 -84.8075 206° Southwest 136 157 3,000  Level Chicago Center
11:08PM 42.8147 -84.8125 186° South 127 146 3,000  Level Chicago Center
11:09PM 42.7792 -84.8133 181° South 128 147 3,000 -300 Level Chicago Center
11:10PM 42.7756 -84.7694 96° East 124 143 2,400 -360 Descending Chicago Center
11:11PM 42.7800 -84.7231 83° East 124 143 2,300 -180 Descending Chicago Center
11:12PM 42.7806 -84.6844 89° East 115 132 2,100 -300 Descending Chicago Center
11:13PM 42.7817 -84.6394 88° East 111 128 1,800 60 Descending Chicago Center
11:15PM 42.8339 -84.6882 326° Northwest  Level FlightAware Approximate
11:18PM 42.7492 -84.5792 211° Southwest 81 93 2,500  Level Cleveland Center
11:19PM 42.7289 -84.6081 226° Southwest 98 113 3,100 540 Climbing Chicago Center
11:20PM 42.7083 -84.6381 227° Southwest 103 119 3,700 420 Climbing Chicago Center
11:21PM 42.6883 -84.6703 230° Southwest 110 127 4,000 120 Climbing Chicago Center
11:22PM 42.5676 -85.0260 211° Southwest  Level FlightAware Approximate
11:22PM 42.6642 -84.7075 229° Southwest 126 145 4,000  Level Chicago Center
11:23PM 42.5157 -85.0677 211° Southwest  Level FlightAware Approximate
11:23PM 42.6389 -84.7472 229° Southwest 136 157 4,000  Level Chicago Center
11:24PM 42.6128 -84.7856 227° Southwest 137 158 4,000  Level Chicago Center
11:25PM 42.5872 -84.8256 229° Southwest 140 161 4,000  Level Chicago Center
11:26PM 42.5608 -84.8653 228° Southwest 141 162 4,000 -60 Level Chicago Center
11:27PM 42.5292 -84.9117 227° Southwest 140 161 3,900  Descending Chicago Center
11:28PM 42.5033 -84.9528 230° Southwest 143 165 4,000  Climbing Chicago Center
11:29PM 42.4747 -84.9867 221° Southwest 140 161 3,900 -300 Descending Chicago Center
11:30PM 42.4383 -85.0136 209° Southwest 146 168 3,400 -540 Descending Chicago Center
11:31PM 42.4000 -85.0317 199° South 147 169 2,900 -240 Descending Chicago Center
11:32PM 42.3622 -85.0333 182° South 139 160 3,000  Climbing Chicago Center
11:33PM 42.3292 -85.0331 180° South 131 151 3,000  Level Chicago Center
11:34PM 42.2983 -85.0531 206° Southwest 126 145 3,000  Level Chicago Center
11:35PM 42.2761 -85.0944 234° Southwest 132 152 3,000 -240 Level Chicago Center
11:36PM 42.2644 -85.1431 252° West 134 154 2,600 -480 Descending Chicago Center
11:37PM 42.2783 -85.1858 294° West 137 158 2,100 -540 Descending Chicago Center